Main page
METAR-TAF:

METAR-TAF

Airports :

Searle Field

Ogallala, Nebraska, United States

latitude: 41-07-11N, longitude: 101-46-08W, elevation: 3277 ft

Current weather observation

The report was made 26 minutes ago, at 13:35 UTC
Wind 6 mph from the East/Northeast
Temperature 61°F
Humidity 82%
Pressure 30.20 in. Hg
Visibility: 10 miles
Overcast at a height of 9000 ft

METAR: KOGA 281335Z AUTO 07005KT 10SM OVC090 16/13 A3020 RMK AO2 T01550129

Time: 08:01 (14:01 UTC)


TAF: missing

Weather observations and forecasts of more than 4000 airports (METAR and TAF reports).

The available stations are represented by yellow and red dots on the map.

Hover mouse over dot to see the name of the station.

Then click to see weather observations and forecasts.

To change the map : click on the green buttons with a black cross to zoom in, on the green button with a dash to zoom out, or on the green arrows for adjacent maps.


METAR-TAF: